createdAt,value
2022-08-25T00:01:44.346Z,7.50
2022-08-25T00:04:16.017Z,7.63
2022-08-25T00:06:47.612Z,7.27
2022-08-25T00:09:20.268Z,9.00
2022-08-25T00:11:49.805Z,8.52
2022-08-25T00:14:21.744Z,7.70
2022-08-25T00:19:23.131Z,8.02
2022-08-25T00:21:51.784Z,8.43
2022-08-25T00:24:21.641Z,8.40
2022-08-25T00:26:53.851Z,8.77
2022-08-25T00:31:50.385Z,10.75
2022-08-25T00:34:23.084Z,11.18
2022-08-25T00:36:51.357Z,10.10
2022-08-25T00:39:22.062Z,9.88
2022-08-25T00:41:52.867Z,11.38
2022-08-25T00:44:21.356Z,12.45
2022-08-25T00:46:55.206Z,9.10
2022-08-25T00:49:45.308Z,9.90
2022-08-25T00:52:27.365Z,9.52
2022-08-25T00:55:08.010Z,10.23
2022-08-25T00:57:54.723Z,9.38
2022-08-25T01:00:31.542Z,8.90
2022-08-25T01:03:00.106Z,9.13
2022-08-25T01:05:29.161Z,9.23
2022-08-25T01:08:00.124Z,9.20
2022-08-25T01:10:30.394Z,9.10
2022-08-25T01:13:05.583Z,9.18
2022-08-25T01:15:35.549Z,10.45
2022-08-25T01:18:06.400Z,9.70
2022-08-25T01:20:34.796Z,9.90
2022-08-25T01:23:03.041Z,9.00
2022-08-25T01:25:51.571Z,10.18
2022-08-25T01:28:21.570Z,9.07
2022-08-25T01:30:50.125Z,9.65
2022-08-25T01:33:18.559Z,10.40
2022-08-25T01:35:47.781Z,11.57
2022-08-25T01:38:16.648Z,10.40
2022-08-25T01:40:45.815Z,9.98
2022-08-25T01:43:22.189Z,9.82
2022-08-25T01:45:50.549Z,11.55
2022-08-25T01:48:19.957Z,10.68
2022-08-25T01:50:48.150Z,10.50
2022-08-25T01:53:21.043Z,9.95
2022-08-25T01:55:49.263Z,10.13
2022-08-25T01:58:20.482Z,9.80
2022-08-25T02:00:50.621Z,9.80
2022-08-25T02:03:19.232Z,10.00
2022-08-25T02:05:48.810Z,9.68
2022-08-25T02:08:18.267Z,9.75
2022-08-25T02:10:46.670Z,9.68
2022-08-25T02:13:15.223Z,9.05
2022-08-25T02:15:46.557Z,9.60
2022-08-25T02:18:14.944Z,10.43
2022-08-25T02:20:43.315Z,10.50
2022-08-25T02:23:11.999Z,9.32
2022-08-25T02:25:42.121Z,9.35
2022-08-25T02:28:11.226Z,9.60
2022-08-25T02:30:41.087Z,10.07
2022-08-25T02:33:09.948Z,9.00
2022-08-25T02:35:38.888Z,9.95
2022-08-25T02:38:07.771Z,9.05
2022-08-25T02:40:36.120Z,9.38
2022-08-25T02:43:04.447Z,9.63
2022-08-25T02:45:32.623Z,9.82
2022-08-25T02:48:00.931Z,9.02
2022-08-25T02:50:29.192Z,9.50
2022-08-25T02:52:57.398Z,9.90
2022-08-25T02:55:25.752Z,10.52
2022-08-25T02:57:53.939Z,10.18
2022-08-25T03:00:22.492Z,10.27
2022-08-25T03:02:51.487Z,10.52
2022-08-25T03:05:19.772Z,10.73
2022-08-25T03:07:48.223Z,9.93
2022-08-25T03:10:18.684Z,10.00
2022-08-25T03:12:47.353Z,10.93
2022-08-25T03:15:17.601Z,10.30
2022-08-25T03:17:47.231Z,9.93
2022-08-25T03:20:15.675Z,10.35
2022-08-25T03:22:44.518Z,10.35
2022-08-25T03:25:12.872Z,10.55
2022-08-25T03:27:40.925Z,10.38
2022-08-25T03:30:10.142Z,10.05
2022-08-25T03:32:38.644Z,10.00
2022-08-25T03:35:07.242Z,11.25
2022-08-25T03:37:35.982Z,10.80
2022-08-25T03:40:15.309Z,10.00
2022-08-25T03:42:46.182Z,9.90
2022-08-25T03:45:16.661Z,9.40
2022-08-25T03:47:48.423Z,9.05
2022-08-25T03:50:18.884Z,9.73
2022-08-25T03:52:52.773Z,10.82
2022-08-25T03:55:22.201Z,9.75
2022-08-25T03:57:51.184Z,10.07
2022-08-25T04:00:20.506Z,10.30
2022-08-25T04:02:49.111Z,9.77
2022-08-25T04:05:17.482Z,11.38
2022-08-25T04:07:45.577Z,10.13
2022-08-25T04:10:14.268Z,10.98
2022-08-25T04:12:42.546Z,11.27
2022-08-25T04:15:11.146Z,10.70
2022-08-25T04:17:40.567Z,11.07
2022-08-25T04:20:10.867Z,10.30
2022-08-25T04:22:44.975Z,10.88
2022-08-25T04:25:13.922Z,10.90
2022-08-25T04:27:42.609Z,10.15
2022-08-25T04:30:11.544Z,11.10
2022-08-25T04:32:39.901Z,11.70
2022-08-25T04:35:08.623Z,11.27
2022-08-25T04:37:37.040Z,12.85
2022-08-25T04:40:06.271Z,11.13
2022-08-25T04:42:34.911Z,11.20
2022-08-25T04:45:03.371Z,17.05
2022-08-25T04:47:31.555Z,14.48
2022-08-25T04:49:59.768Z,12.02
2022-08-25T04:52:27.977Z,12.40
2022-08-25T04:54:56.254Z,10.82
2022-08-25T04:57:24.390Z,12.82
2022-08-25T04:59:52.873Z,11.95
2022-08-25T05:02:21.267Z,12.57
2022-08-25T05:04:49.650Z,12.43
2022-08-25T05:07:17.963Z,12.75
2022-08-25T05:09:46.203Z,11.52
2022-08-25T05:12:14.494Z,12.38
2022-08-25T05:14:43.385Z,11.52
2022-08-25T05:17:11.751Z,11.00
2022-08-25T05:19:39.994Z,11.75
2022-08-25T05:22:08.364Z,12.27
2022-08-25T05:24:36.696Z,17.00
2022-08-25T05:27:04.949Z,21.48
2022-08-25T05:29:33.152Z,20.38
2022-08-25T05:32:01.536Z,16.92
2022-08-25T05:34:29.789Z,15.75
2022-08-25T05:36:58.199Z,14.20
2022-08-25T05:39:27.492Z,13.48
2022-08-25T05:41:55.741Z,12.65
2022-08-25T05:44:23.942Z,13.80
2022-08-25T05:46:52.157Z,13.27
2022-08-25T05:49:20.605Z,12.73
2022-08-25T05:51:48.824Z,17.48
2022-08-25T05:54:17.194Z,16.50
2022-08-25T05:56:45.410Z,13.25
2022-08-25T05:59:13.736Z,14.07
2022-08-25T06:01:43.414Z,13.77
2022-08-25T06:04:14.862Z,12.73
2022-08-25T06:06:43.062Z,12.95
2022-08-25T06:09:11.753Z,12.13
2022-08-25T06:11:41.499Z,13.40
2022-08-25T06:14:11.029Z,12.60
2022-08-25T06:16:39.638Z,12.07
2022-08-25T06:19:10.412Z,11.77
2022-08-25T06:21:39.290Z,13.17
2022-08-25T06:24:12.043Z,12.13
2022-08-25T06:26:43.426Z,14.25
2022-08-25T06:29:11.835Z,12.90
2022-08-25T06:31:40.296Z,12.52
2022-08-25T06:34:08.981Z,13.43
2022-08-25T06:36:37.201Z,13.63
2022-08-25T06:39:05.948Z,15.57
2022-08-25T06:41:36.813Z,15.57
2022-08-25T06:44:06.096Z,15.97
2022-08-25T06:46:36.327Z,15.95
2022-08-25T06:49:07.210Z,14.68
2022-08-25T06:51:36.335Z,14.43
2022-08-25T06:54:06.747Z,13.70
2022-08-25T06:56:35.291Z,15.85
2022-08-25T06:59:05.109Z,15.35
2022-08-25T07:01:33.723Z,14.48
2022-08-25T07:04:05.678Z,15.43
2022-08-25T07:06:36.932Z,14.27
2022-08-25T07:09:07.029Z,14.63
2022-08-25T07:11:35.687Z,15.48
2022-08-25T07:14:05.343Z,15.77
2022-08-25T07:16:34.419Z,17.67
2022-08-25T07:19:03.861Z,14.75
2022-08-25T07:21:35.602Z,14.77
2022-08-25T07:24:10.515Z,14.07
2022-08-25T07:26:40.581Z,14.15
2022-08-25T07:29:18.049Z,14.70
2022-08-25T07:31:46.627Z,17.25
2022-08-25T07:34:16.425Z,18.08
2022-08-25T07:36:45.483Z,16.23
2022-08-25T07:39:14.006Z,18.27
2022-08-25T07:41:43.108Z,18.40
2022-08-25T07:44:12.957Z,19.85
2022-08-25T07:46:42.617Z,18.52
2022-08-25T07:49:16.759Z,16.40
2022-08-25T07:52:05.371Z,15.65
2022-08-25T07:54:37.852Z,14.43
2022-08-25T07:57:09.560Z,15.68
2022-08-25T07:59:42.628Z,15.77
2022-08-25T08:02:18.693Z,15.82
2022-08-25T08:04:52.167Z,17.20
2022-08-25T08:07:43.498Z,16.80
2022-08-25T08:13:03.452Z,14.45
2022-08-25T08:15:32.466Z,13.82
2022-08-25T08:18:01.415Z,13.50
2022-08-25T08:20:41.107Z,14.50
2022-08-25T08:23:12.451Z,14.45
2022-08-25T08:25:40.606Z,13.52
2022-08-25T08:28:09.051Z,15.20
2022-08-25T08:30:39.657Z,14.88
2022-08-25T08:33:22.150Z,13.82
2022-08-25T08:36:05.149Z,13.40
2022-08-25T08:38:36.362Z,12.45
2022-08-25T08:42:09.695Z,20.23
2022-08-25T08:45:12.090Z,16.10
2022-08-25T08:48:01.606Z,13.88
2022-08-25T08:50:47.722Z,16.20
2022-08-25T08:53:23.930Z,16.83
2022-08-25T09:01:00.110Z,16.38
2022-08-25T09:03:34.505Z,13.70
2022-08-25T09:06:18.293Z,14.02
2022-08-25T09:08:46.752Z,12.48
2022-08-25T09:11:45.470Z,14.93
2022-08-25T09:14:23.099Z,15.10
2022-08-25T09:17:14.039Z,17.30
2022-08-25T09:20:00.638Z,16.98
2022-08-25T09:22:53.776Z,18.85
2022-08-25T09:25:53.026Z,16.52
2022-08-25T09:28:35.396Z,14.02
2022-08-25T09:31:11.200Z,14.82
2022-08-25T09:33:39.509Z,15.05
2022-08-25T09:36:09.891Z,13.88
2022-08-25T09:38:38.982Z,15.88
2022-08-25T09:41:08.779Z,14.02
2022-08-25T09:43:45.374Z,14.18
2022-08-25T09:46:16.379Z,14.35
2022-08-25T09:48:56.652Z,13.00
2022-08-25T09:51:42.592Z,12.68
2022-08-25T09:54:14.331Z,12.77
2022-08-25T09:57:00.235Z,13.77
2022-08-25T09:59:37.743Z,14.13
2022-08-25T10:02:26.210Z,14.55
2022-08-25T10:04:56.755Z,14.65
2022-08-25T10:07:51.950Z,13.95
2022-08-25T10:10:32.379Z,13.10
2022-08-25T10:13:02.779Z,12.18
2022-08-25T10:15:38.199Z,13.48
2022-08-25T10:18:28.935Z,12.80
2022-08-25T10:21:09.846Z,14.20
2022-08-25T10:23:51.433Z,14.40
2022-08-25T10:26:34.888Z,15.43
2022-08-25T10:29:28.311Z,14.75
2022-08-25T10:33:10.559Z,13.73
2022-08-25T10:35:39.102Z,13.13
2022-08-25T10:38:34.790Z,14.57
2022-08-25T10:41:07.922Z,13.45
2022-08-25T10:43:55.689Z,12.80
2022-08-25T10:46:53.970Z,14.27
2022-08-25T10:49:27.401Z,14.60
2022-08-25T10:52:14.853Z,12.57
2022-08-25T10:54:57.959Z,12.85
2022-08-25T10:57:58.630Z,12.75
2022-08-25T11:00:37.728Z,12.77
2022-08-25T11:04:01.689Z,12.45
2022-08-25T11:06:54.598Z,10.93
2022-08-25T11:09:30.311Z,12.05
2022-08-25T11:12:11.016Z,14.00
2022-08-25T11:15:04.469Z,10.90
2022-08-25T11:18:03.639Z,15.70
2022-08-25T11:20:44.043Z,12.77
2022-08-25T11:23:23.974Z,12.10
2022-08-25T11:26:13.197Z,12.93
2022-08-25T11:29:03.429Z,31.08
2022-08-25T11:31:38.157Z,15.32
2022-08-25T11:34:11.280Z,13.25
2022-08-25T11:36:42.900Z,12.27
2022-08-25T11:39:37.034Z,12.32
2022-08-25T11:42:39.080Z,12.15
2022-08-25T11:45:37.366Z,12.10
2022-08-25T11:48:27.017Z,11.75
2022-08-25T11:51:24.979Z,12.02
2022-08-25T11:54:08.086Z,13.02
2022-08-25T11:56:40.238Z,12.52
2022-08-25T11:59:09.858Z,13.07
2022-08-25T12:01:41.942Z,12.25
2022-08-25T12:04:33.397Z,11.45
2022-08-25T12:07:07.856Z,10.73
2022-08-25T12:09:56.158Z,12.43
2022-08-25T12:12:36.546Z,14.10
2022-08-25T12:15:24.967Z,13.77
2022-08-25T12:18:13.832Z,12.40
2022-08-25T12:20:55.922Z,12.52
2022-08-25T12:23:33.429Z,9.75
2022-08-25T12:26:20.673Z,11.30
2022-08-25T12:29:18.335Z,12.25
2022-08-25T12:32:04.684Z,13.18
2022-08-25T12:34:56.094Z,13.35
2022-08-25T12:37:26.191Z,11.63
2022-08-25T12:39:58.931Z,10.98
2022-08-25T12:42:39.548Z,13.60
2022-08-25T12:45:23.330Z,12.73
2022-08-25T12:47:55.426Z,11.38
2022-08-25T12:50:36.989Z,13.05
2022-08-25T12:53:14.856Z,12.90
2022-08-25T12:56:00.976Z,13.48
2022-08-25T12:59:02.243Z,13.77
2022-08-25T13:01:52.376Z,14.00
2022-08-25T13:04:35.755Z,11.57
2022-08-25T13:07:21.556Z,11.00
2022-08-25T13:10:16.229Z,13.38
2022-08-25T13:13:09.373Z,12.43
2022-08-25T13:15:42.013Z,12.95
2022-08-25T13:18:22.173Z,13.35
2022-08-25T13:20:55.363Z,11.45
2022-08-25T13:23:29.899Z,12.85
2022-08-25T13:25:59.384Z,12.50
2022-08-25T13:28:41.963Z,11.23
2022-08-25T13:31:20.578Z,12.15
2022-08-25T13:33:59.317Z,11.65
2022-08-25T13:36:30.372Z,12.93
2022-08-25T13:39:33.494Z,15.80
2022-08-25T13:42:14.978Z,12.90
2022-08-25T13:44:51.725Z,12.93
2022-08-25T13:47:43.509Z,12.40
2022-08-25T13:50:29.561Z,12.85
2022-08-25T13:53:25.012Z,12.52
2022-08-25T13:55:58.281Z,12.27
2022-08-25T13:58:45.192Z,12.57
2022-08-25T14:01:48.274Z,13.25
2022-08-25T14:04:51.124Z,13.82
2022-08-25T14:07:23.640Z,12.00
2022-08-25T14:09:59.859Z,14.20
2022-08-25T14:12:44.834Z,11.75
2022-08-25T14:15:19.317Z,12.98
2022-08-25T14:18:27.123Z,12.38
2022-08-25T14:20:59.034Z,12.60
2022-08-25T14:23:31.215Z,14.85
2022-08-25T14:26:00.142Z,13.68
2022-08-25T14:28:30.620Z,15.55
2022-08-25T14:31:13.918Z,16.92
2022-08-25T14:34:02.925Z,20.38
2022-08-25T14:36:35.461Z,14.82
2022-08-25T14:39:05.331Z,12.43
2022-08-25T14:41:41.011Z,16.40
2022-08-25T14:44:11.325Z,18.38
2022-08-25T14:46:45.791Z,11.60
2022-08-25T14:49:25.158Z,12.65
2022-08-25T14:51:55.068Z,13.15
2022-08-25T14:54:28.159Z,13.80
2022-08-25T14:56:57.835Z,16.50
2022-08-25T14:59:40.650Z,17.52
2022-08-25T15:02:17.136Z,14.25
2022-08-25T15:04:58.205Z,12.57
2022-08-25T15:07:32.883Z,13.90
2022-08-25T15:10:01.588Z,13.93
2022-08-25T15:12:46.871Z,13.98
2022-08-25T15:15:16.561Z,16.05
2022-08-25T15:17:47.347Z,18.92
2022-08-25T15:20:19.536Z,20.48
2022-08-25T15:22:49.742Z,17.15
2022-08-25T15:25:22.576Z,18.98
2022-08-25T15:27:53.111Z,16.55
2022-08-25T15:30:30.949Z,14.23
2022-08-25T15:33:05.095Z,18.38
2022-08-25T15:35:36.543Z,22.10
2022-08-25T15:38:05.496Z,13.68
2022-08-25T15:40:38.089Z,21.92
2022-08-25T15:43:08.739Z,15.07
2022-08-25T15:45:37.807Z,13.77
2022-08-25T15:48:09.662Z,17.25
2022-08-25T15:50:38.838Z,17.75
2022-08-25T15:53:08.396Z,12.23
2022-08-25T15:55:41.250Z,13.20
2022-08-25T15:58:13.636Z,13.43
2022-08-25T16:00:56.413Z,13.35
2022-08-25T16:03:25.456Z,12.48
2022-08-25T16:05:54.444Z,13.68
2022-08-25T16:08:22.778Z,13.75
2022-08-25T16:10:51.038Z,13.38
2022-08-25T16:13:19.749Z,13.60
2022-08-25T16:15:53.139Z,12.57
2022-08-25T16:18:23.893Z,12.38
2022-08-25T16:20:53.194Z,13.55
2022-08-25T16:23:21.878Z,13.13
2022-08-25T16:25:50.037Z,14.23
2022-08-25T16:28:20.478Z,14.20
2022-08-25T16:30:53.405Z,13.75
2022-08-25T16:33:22.549Z,13.68
2022-08-25T16:35:50.744Z,17.67
2022-08-25T16:38:19.242Z,22.00
2022-08-25T16:40:48.230Z,20.60
2022-08-25T16:43:16.566Z,23.25
2022-08-25T16:45:44.683Z,20.73
2022-08-25T16:48:13.103Z,15.40
2022-08-25T16:50:41.256Z,26.13
2022-08-25T16:53:09.543Z,16.48
2022-08-25T16:55:39.887Z,14.98
2022-08-25T16:58:12.565Z,14.57
2022-08-25T17:00:44.018Z,16.15
2022-08-25T17:03:13.236Z,15.17
2022-08-25T17:05:43.446Z,11.90
2022-08-25T17:08:12.291Z,15.75
2022-08-25T17:10:42.845Z,19.55
2022-08-25T17:13:12.023Z,16.08
2022-08-25T17:15:43.025Z,14.45
2022-08-25T17:18:12.730Z,12.50
2022-08-25T17:20:43.050Z,13.70
2022-08-25T17:23:12.935Z,13.43
2022-08-25T17:25:43.203Z,14.50
2022-08-25T17:28:12.958Z,13.75
2022-08-25T17:30:41.785Z,13.80
2022-08-25T17:33:10.237Z,14.07
2022-08-25T17:35:46.997Z,13.90
2022-08-25T17:38:17.298Z,15.25
2022-08-25T17:40:46.655Z,14.57
2022-08-25T17:43:15.186Z,16.42
2022-08-25T17:45:44.214Z,16.83
2022-08-25T17:48:12.765Z,14.30
2022-08-25T17:50:41.522Z,13.27
2022-08-25T17:53:11.014Z,13.65
2022-08-25T17:55:42.278Z,15.18
2022-08-25T17:58:14.903Z,14.70
2022-08-25T18:00:44.747Z,14.10
2022-08-25T18:03:13.409Z,13.95
2022-08-25T18:05:41.866Z,14.63
2022-08-25T18:08:10.889Z,15.93
2022-08-25T18:10:40.219Z,17.85
2022-08-25T18:13:08.866Z,24.10
2022-08-25T18:15:37.279Z,23.50
2022-08-25T18:18:12.469Z,16.25
2022-08-25T18:20:46.277Z,18.05
2022-08-25T18:23:15.607Z,19.60
2022-08-25T18:25:43.932Z,20.02
2022-08-25T18:28:12.444Z,22.25
2022-08-25T18:30:41.023Z,19.02
2022-08-25T18:33:09.471Z,27.20
2022-08-25T18:35:38.114Z,19.98
2022-08-25T18:38:07.671Z,18.48
2022-08-25T18:40:37.177Z,15.48
2022-08-25T18:43:09.240Z,18.88
2022-08-25T18:48:21.788Z,23.35
2022-08-25T18:50:55.318Z,20.15
2022-08-25T18:53:30.076Z,19.88
2022-08-25T18:56:06.066Z,15.68
2022-08-25T18:58:34.542Z,16.25
2022-08-25T19:01:05.235Z,16.55
2022-08-25T19:03:33.506Z,16.55
2022-08-25T19:06:01.870Z,20.60
2022-08-25T19:08:30.330Z,19.08
2022-08-25T19:10:58.475Z,49.17
2022-08-25T19:15:29.831Z,21.30
2022-08-25T19:17:59.335Z,17.50
2022-08-25T19:20:28.690Z,19.95
2022-08-25T19:22:58.577Z,19.92
2022-08-25T19:25:32.972Z,20.98
2022-08-25T19:28:04.840Z,21.08
2022-08-25T19:30:33.488Z,20.15
2022-08-25T19:33:02.010Z,20.15
2022-08-25T19:35:59.721Z,20.35
2022-08-25T19:38:33.918Z,21.17
2022-08-25T19:41:10.475Z,21.63
2022-08-25T19:43:55.663Z,19.13
2022-08-25T19:46:32.693Z,19.15
2022-08-25T19:49:08.085Z,17.63
2022-08-25T19:51:39.364Z,17.58
2022-08-25T19:54:10.274Z,16.70
2022-08-25T19:56:55.072Z,21.05
2022-08-25T19:59:42.315Z,25.85
2022-08-25T20:02:16.007Z,24.52
2022-08-25T20:04:50.397Z,28.30
2022-08-25T20:07:23.902Z,25.73
2022-08-25T20:09:56.759Z,27.05
2022-08-25T20:12:27.859Z,23.60
2022-08-25T20:14:57.511Z,25.23
2022-08-25T20:17:28.474Z,31.35
2022-08-25T20:20:00.141Z,30.80
2022-08-25T20:22:31.569Z,27.10
2022-08-25T20:25:13.706Z,47.63
2022-08-25T20:30:16.743Z,58.90
2022-08-25T20:32:46.096Z,24.00
2022-08-25T20:35:15.150Z,19.45
2022-08-25T20:37:45.802Z,18.00
2022-08-25T20:40:18.335Z,20.42
2022-08-25T20:42:54.289Z,23.95
2022-08-25T20:45:22.913Z,24.02
2022-08-25T20:47:51.365Z,18.63
2022-08-25T20:50:20.039Z,15.90
2022-08-25T20:52:48.689Z,15.68
2022-08-25T20:55:17.643Z,30.15
2022-08-25T20:57:48.355Z,19.08
2022-08-25T21:00:17.683Z,16.65
2022-08-25T21:02:46.486Z,17.60
2022-08-25T21:05:15.420Z,18.42
2022-08-25T21:07:44.248Z,18.00
2022-08-25T21:10:14.180Z,15.05
2022-08-25T21:12:43.267Z,15.85
2022-08-25T21:15:13.486Z,17.00
2022-08-25T21:17:51.258Z,20.77
2022-08-25T21:20:20.468Z,18.27
2022-08-25T21:22:48.710Z,21.90
2022-08-25T21:25:20.153Z,16.63
2022-08-25T21:27:49.290Z,24.45
2022-08-25T21:30:17.726Z,33.28
2022-08-25T21:32:52.872Z,63.58
2022-08-25T21:35:23.532Z,53.53
2022-08-25T21:37:53.273Z,59.33
2022-08-25T21:40:23.510Z,68.55
2022-08-25T21:42:53.173Z,59.70
2022-08-25T21:45:21.877Z,43.72
2022-08-25T21:47:51.745Z,35.17
2022-08-25T21:50:21.578Z,30.35
2022-08-25T21:52:54.663Z,29.98
2022-08-25T21:55:24.242Z,30.65
2022-08-25T21:57:52.844Z,33.88
2022-08-25T22:00:21.549Z,46.97
2022-08-25T22:02:50.282Z,67.80
2022-08-25T22:05:18.752Z,45.17
2022-08-25T22:07:47.175Z,37.97
2022-08-25T22:10:17.800Z,27.60
2022-08-25T22:12:48.416Z,26.80
2022-08-25T22:15:18.136Z,23.20
2022-08-25T22:17:48.069Z,22.20
2022-08-25T22:20:18.674Z,20.20
2022-08-25T22:22:47.330Z,22.38
2022-08-25T22:25:16.030Z,25.67
2022-08-25T22:27:44.849Z,21.63
2022-08-25T22:30:15.103Z,18.85
2022-08-25T22:32:45.410Z,20.13
2022-08-25T22:35:14.046Z,18.50
2022-08-25T22:37:42.460Z,19.58
2022-08-25T22:40:11.935Z,16.75
2022-08-25T22:42:40.535Z,19.02
2022-08-25T22:45:11.694Z,18.23
2022-08-25T22:47:39.977Z,19.23
2022-08-25T22:50:10.149Z,19.92
2022-08-25T22:52:38.468Z,23.10
2022-08-25T22:55:11.279Z,20.15
2022-08-25T22:57:41.366Z,18.40
2022-08-25T23:00:12.046Z,19.83
2022-08-25T23:02:41.812Z,20.90
2022-08-25T23:05:11.769Z,21.85
2022-08-25T23:07:41.740Z,20.95
2022-08-25T23:10:13.057Z,20.83
2022-08-25T23:12:42.645Z,22.83
2022-08-25T23:15:13.342Z,25.95
2022-08-25T23:17:42.893Z,24.95
2022-08-25T23:20:11.691Z,26.73
2022-08-25T23:22:39.955Z,27.15
2022-08-25T23:25:10.614Z,28.98
2022-08-25T23:27:38.970Z,28.23
2022-08-25T23:30:08.052Z,25.48
2022-08-25T23:32:37.589Z,27.45
2022-08-25T23:35:06.873Z,26.27
2022-08-25T23:37:35.767Z,27.55
2022-08-25T23:40:06.415Z,28.33
2022-08-25T23:42:35.399Z,25.67
2022-08-25T23:45:06.120Z,25.85
2022-08-25T23:47:34.324Z,22.80
2022-08-25T23:50:03.218Z,25.25
2022-08-25T23:52:31.868Z,27.85
2022-08-25T23:55:01.389Z,27.52
2022-08-25T23:57:30.312Z,21.98
2022-08-25T23:59:58.612Z,23.98
